Detroit, Illinois
Current Conditions -  °F | °C
As of 12:55 AM on Sunday 21 Dec 2014 (Local Time) from KPPQ Reporting Station
Overcast Overcast  
Wind Chill: 33°   Ceiling: 3100
Heat Index: 37°   Visibility: 7mi
Dew Point: 34°   Wind: 6mph
Humidity: 89%   Direction: 150°SSE
Pressure: 30.21"   Gusts: NA
Location:  39.5728°N, 90.8034°W
Report Text: KPPQ 210655Z AUTO 15005KT 7SM OVC031 03/01 A3021 RMK AO2 T00300013
Loading
Personal Weather Stations






























Interactive Weather Map New forecast layout! Learn more

10-Day Weather Forecast

Advertisements
Track Severe Weather on mobile